Buea, Cameroon
Current Conditions -  °F | °C
As of 5:00 PM on Friday 21 Nov 2014 (Local Time) from FKKD Reporting Station
Broken Clouds Broken Clouds  
Wind Chill: 86°   Ceiling: 30000
Heat Index: 102°   Visibility: 6mi
Dew Point: 81°   Wind: 9mph
Humidity: 84%   Direction: 220°SW
Pressure: 29.8"   Gusts: NA
Location:  4.16°N, 9.23°E
Report Text: FKKD 211600Z 22008KT 9999 FEW020 BKN300 30/27 Q1009 NOSIG
Loading
Personal Weather Stations






























Interactive Weather Map New forecast layout! Learn more

10-Day Weather Forecast

Advertisements
Track Severe Weather on mobile